Time;durP1;ratioP1;P1;durP2;ratioP2;P2;SDS_P1;SDS_P2;PMS_P1;PMS_P2;Temp;Humidity;BMP_temperature;BMP_pressure;BME280_temperature;BME280_humidity;BME280_pressure;Samples;Min_cycle;Max_cycle;Signal;HPM_P1;HPM_P2
2021/04/17 00:02:21;;;;;;;28.30;17.92;;;;;;;5.18;96.47;99225.95;1723778;81;20940;-68
2021/04/17 00:04:49;;;;;;;31.25;18.62;;;;;;;5.17;96.09;99233.05;1764500;81;21017;-70
2021/04/17 00:07:17;;;;;;;29.07;19.05;;;;;;;5.13;96.07;99234.17;1758904;79;21243;-71
2021/04/17 00:09:44;;;;;;;30.80;18.82;;;;;;;5.10;96.25;99240.19;1736171;81;21953;-70
2021/04/17 00:12:16;;;;;;;27.40;18.42;;;;;;;5.06;96.69;99237.78;1734150;82;21600;-70
2021/04/17 00:14:45;;;;;;;27.52;18.57;;;;;;;5.06;96.69;99237.78;1734095;82;20959;-70
2021/04/17 00:17:14;;;;;;;35.75;19.80;;;;;;;5.01;96.67;99239.19;1734147;82;20958;-70
2021/04/17 00:19:47;;;;;;;28.35;16.93;;;;;;;5.00;96.91;99232.13;1734109;82;21337;-70
2021/04/17 00:22:14;;;;;;;28.35;18.37;;;;;;;4.98;96.87;99237.04;1734211;82;20962;-68
2021/04/17 00:24:42;;;;;;;25.43;17.35;;;;;;;4.98;97.00;99241.13;1734104;82;21507;-68
2021/04/17 00:27:10;;;;;;;25.57;16.95;;;;;;;4.98;97.25;99241.94;1734080;82;21045;-69
2021/04/17 00:29:37;;;;;;;26.27;17.40;;;;;;;4.97;97.35;99239.50;1734065;82;21152;-69
2021/04/17 00:32:07;;;;;;;23.55;16.77;;;;;;;4.97;97.35;99239.50;1734070;82;21205;-68
2021/04/17 00:34:37;;;;;;;25.05;18.25;;;;;;;4.96;97.51;99246.84;1734079;82;26472;-69
2021/04/17 00:37:07;;;;;;;25.15;17.98;;;;;;;4.95;97.65;99247.13;1733962;82;21156;-69
2021/04/17 00:39:35;;;;;;;25.45;17.57;;;;;;;4.95;97.79;99251.21;1734083;82;20906;-75
2021/04/17 00:42:04;;;;;;;27.65;17.85;;;;;;;4.94;97.91;99255.03;1734112;82;21080;-73
2021/04/17 00:44:33;;;;;;;24.67;15.95;;;;;;;4.95;98.04;99255.30;1734120;82;21485;-74
2021/04/17 00:47:03;;;;;;;24.32;15.75;;;;;;;4.93;98.03;99247.42;1733834;82;21990;-74
2021/04/17 00:49:32;;;;;;;25.40;16.25;;;;;;;4.92;98.00;99253.14;1733530;82;21090;-74
2021/04/17 00:52:00;;;;;;;21.93;15.78;;;;;;;4.89;97.97;99252.35;1733529;82;21029;-72
2021/04/17 00:54:27;;;;;;;22.25;13.80;;;;;;;4.88;98.10;99249.38;1703130;82;21041;-74
2021/04/17 00:56:55;;;;;;;23.40;14.35;;;;;;;4.87;98.21;99250.47;1733529;82;21279;-73
2021/04/17 00:59:23;;;;;;;21.82;15.50;;;;;;;4.83;98.23;99252.13;1733484;82;20958;-70
2021/04/17 01:01:51;;;;;;;19.65;14.40;;;;;;;4.84;98.34;99253.76;1733509;82;21481;-72
2021/04/17 01:04:41;;;;;;;22.20;15.10;;;;;;;4.82;98.39;99260.03;1733528;82;20990;-70
2021/04/17 01:07:28;;;;;;;21.25;14.87;;;;;;;4.81;98.50;99258.41;1722023;82;21599;-66
2021/04/17 01:10:14;;;;;;;23.95;16.25;;;;;;;4.79;98.75;99256.52;1704149;82;21620;-70
2021/04/17 01:12:45;;;;;;;27.32;18.15;;;;;;;4.79;98.75;99256.52;1733533;82;20966;-71
2021/04/17 01:15:15;;;;;;;24.02;16.30;;;;;;;4.81;99.06;99254.33;1702937;82;20939;-69
2021/04/17 01:17:44;;;;;;;22.37;14.98;;;;;;;4.81;99.20;99252.42;1733543;82;21516;-72
2021/04/17 01:20:24;;;;;;;21.77;16.15;;;;;;;4.79;99.31;99250.53;1733549;82;21104;-73
2021/04/17 01:23:15;;;;;;;26.57;17.15;;;;;;;4.80;99.50;99249.98;1733534;82;21426;-72
2021/04/17 01:25:55;;;;;;;19.42;14.75;;;;;;;4.79;99.67;99252.44;1733567;82;20974;-71
2021/04/17 01:28:25;;;;;;;26.62;18.32;;;;;;;4.77;99.77;99258.16;1733791;82;21529;-72
2021/04/17 01:30:54;;;;;;;25.55;17.20;;;;;;;4.75;99.88;99254.91;1734381;82;20948;-72
2021/04/17 01:33:25;;;;;;;28.70;18.07;;;;;;;4.73;100.00;99257.66;1748310;81;20976;-71
2021/04/17 01:35:53;;;;;;;25.12;16.70;;;;;;;4.72;100.00;99250.59;1741420;81;21417;-71
2021/04/17 01:38:24;;;;;;;26.23;16.23;;;;;;;4.69;100.00;99256.59;1756478;81;20991;-70
2021/04/17 01:40:56;;;;;;;21.52;14.35;;;;;;;4.65;100.00;99254.98;1743479;82;20949;-70
2021/04/17 01:43:25;;;;;;;;;;;;;;;4.60;100.00;99256.42;1759167;81;21067;-71
2021/04/17 01:45:53;;;;;;;26.10;15.18;;;;;;;4.58;100.00;99253.17;1744174;82;20498;-72
2021/04/17 01:48:21;;;;;;;19.40;14.10;;;;;;;4.54;100.00;99258.91;1756576;81;21140;-73
2021/04/17 01:50:49;;;;;;;20.62;14.93;;;;;;;4.49;99.97;99259.76;1744046;82;21559;-74
2021/04/17 01:53:20;;;;;;;20.75;15.28;;;;;;;4.43;99.83;99261.44;1756557;81;21578;-73
2021/04/17 01:55:48;;;;;;;18.48;14.75;;;;;;;4.38;99.86;99260.11;1756536;81;21016;-74
2021/04/17 01:58:23;;;;;;;17.85;13.30;;;;;;;4.34;99.91;99266.65;1756510;81;21082;-73
2021/04/17 02:00:53;;;;;;;21.57;14.90;;;;;;;4.29;99.87;99258.53;1756576;81;21439;-73
2021/04/17 02:03:21;;;;;;;18.77;13.95;;;;;;;4.23;99.65;99259.11;1756497;81;20916;-74
2021/04/17 02:05:50;;;;;;;18.80;14.05;;;;;;;4.17;99.60;99249.36;1756568;81;21587;-73
2021/04/17 02:08:19;;;;;;;20.80;15.75;;;;;;;4.14;99.48;99261.33;1756483;81;21156;-73
2021/04/17 02:10:47;;;;;;;21.37;16.67;;;;;;;4.10;99.36;99261.63;1756543;81;21011;-73
2021/04/17 02:13:15;;;;;;;18.57;14.78;;;;;;;4.04;99.23;99260.88;1756502;81;21493;-73
2021/04/17 02:15:44;;;;;;;23.18;16.37;;;;;;;4.00;99.27;99258.99;1756454;81;20975;-73
2021/04/17 02:18:32;;;;;;;21.68;15.90;;;;;;;3.96;99.42;99267.70;1756636;81;21506;-74
2021/04/17 02:21:06;;;;;;;21.70;16.27;;;;;;;3.94;99.42;99266.35;1756189;81;20983;-73
2021/04/17 02:23:33;;;;;;;24.00;16.90;;;;;;;3.92;99.52;99276.14;1756606;81;20928;-73
2021/04/17 02:26:01;;;;;;;20.82;16.17;;;;;;;3.90;99.59;99272.89;1756522;81;21348;-73
2021/04/17 02:28:30;;;;;;;22.25;16.75;;;;;;;3.89;99.63;99275.88;1730990;81;21011;-73
2021/04/17 02:31:03;;;;;;;22.20;17.27;;;;;;;3.85;99.56;99274.81;1756606;81;21518;-73
2021/04/17 02:33:32;;;;;;;21.62;17.02;;;;;;;3.82;99.62;99280.25;1756475;81;20955;-74
2021/04/17 02:36:00;;;;;;;21.68;16.62;;;;;;;3.81;99.76;99276.45;1755040;81;21087;-73
2021/04/17 02:38:28;;;;;;;24.65;18.57;;;;;;;3.82;99.86;99284.33;1748262;82;22331;-73
2021/04/17 02:40:55;;;;;;;24.32;17.40;;;;;;;3.80;99.80;99279.72;1748201;82;20949;-73
2021/04/17 02:43:23;;;;;;;25.00;18.70;;;;;;;3.78;99.62;99288.69;1748194;82;20928;-73
2021/04/17 02:45:50;;;;;;;22.98;16.15;;;;;;;3.74;99.68;99286.25;1748230;82;21074;-73
2021/04/17 02:48:18;;;;;;;26.25;19.42;;;;;;;3.72;99.90;99289.79;1748238;81;21561;-72
2021/04/17 02:50:46;;;;;;;24.15;17.98;;;;;;;3.71;100.00;99289.52;1748216;81;21478;-71
2021/04/17 02:53:14;;;;;;;28.62;20.15;;;;;;;3.71;100.00;99290.88;1748246;82;20936;-71
2021/04/17 02:55:42;;;;;;;24.63;18.52;;;;;;;3.70;100.00;99291.16;1748188;82;20968;-71
2021/04/17 02:58:09;;;;;;;24.07;17.45;;;;;;;3.70;100.00;99293.88;1748181;82;20996;-72
2021/04/17 03:00:37;;;;;;;26.80;19.40;;;;;;;3.68;100.00;99284.64;1748205;82;21163;-72
2021/04/17 03:03:06;;;;;;;26.40;19.23;;;;;;;3.68;100.00;99286.55;1748209;82;21368;-72
2021/04/17 03:05:33;;;;;;;25.72;19.05;;;;;;;3.67;100.00;99294.42;1748170;82;20972;-72
2021/04/17 03:08:01;;;;;;;24.72;18.48;;;;;;;3.68;100.00;99296.05;1748169;82;20999;-72
2021/04/17 03:10:28;;;;;;;25.23;18.05;;;;;;;3.69;100.00;99302.56;1748286;82;21579;-72
2021/04/17 03:12:56;;;;;;;25.43;18.55;;;;;;;3.71;100.00;99303.64;1748247;82;21380;-73
2021/04/17 03:15:23;;;;;;;31.20;18.32;;;;;;;3.71;100.00;99305.81;1748178;82;21394;-72
2021/04/17 03:17:51;;;;;;;35.52;21.40;;;;;;;3.72;100.00;99312.05;1748150;82;20960;-72
2021/04/17 03:20:19;;;;;;;28.30;20.30;;;;;;;3.72;100.00;99307.44;1748238;82;20953;-72
2021/04/17 03:22:47;;;;;;;26.60;18.92;;;;;;;3.73;99.99;99310.42;1748160;82;21024;-72
2021/04/17 03:25:15;;;;;;;33.73;21.50;;;;;;;3.74;99.97;99313.41;1747736;80;21126;-72
2021/04/17 03:27:43;;;;;;;30.75;21.27;;;;;;;3.74;99.90;99310.69;1747263;82;22105;-73
2021/04/17 03:30:15;;;;;;;33.38;20.50;;;;;;;3.74;99.95;99314.77;1746480;82;21503;-72
2021/04/17 03:32:43;;;;;;;26.57;20.02;;;;;;;3.75;99.91;99316.39;1746834;81;21558;-69
2021/04/17 03:35:12;;;;;;;28.98;19.57;;;;;;;3.74;99.81;99320.19;1746559;82;20996;-67
2021/04/17 03:37:42;;;;;;;30.60;20.10;;;;;;;3.73;99.84;99319.92;1758585;81;21086;-68
2021/04/17 03:40:12;;;;;;;30.95;20.50;;;;;;;3.75;99.84;99325.89;1762920;81;21565;-68
2021/04/17 03:42:41;;;;;;;31.00;20.80;;;;;;;3.76;99.91;99331.59;1762879;81;20967;-68
2021/04/17 03:45:12;;;;;;;29.70;19.50;;;;;;;3.79;99.91;99337.83;1735316;81;21016;-68
2021/04/17 03:47:40;;;;;;;30.80;20.97;;;;;;;3.81;99.87;99333.48;1762948;81;21542;-68
2021/04/17 03:50:09;;;;;;;30.90;19.00;;;;;;;3.83;99.75;99339.45;1762927;81;21121;-68
2021/04/17 03:52:37;;;;;;;29.98;20.65;;;;;;;3.83;99.68;99340.26;1762900;80;21375;-69
2021/04/17 03:55:07;;;;;;;31.27;20.68;;;;;;;3.84;99.48;99348.67;1762895;81;21241;-73
2021/04/17 03:57:37;;;;;;;33.15;20.32;;;;;;;3.85;99.56;99346.77;1763020;81;21050;-69
2021/04/17 04:00:07;;;;;;;29.02;20.43;;;;;;;3.88;99.59;99354.36;1762980;81;21074;-70
2021/04/17 04:02:36;;;;;;;31.75;21.30;;;;;;;3.90;99.50;99359.79;1708652;81;21460;-70
2021/04/17 04:05:06;;;;;;;29.55;21.40;;;;;;;3.88;99.07;99357.08;1762919;81;21271;-70
2021/04/17 04:07:34;;;;;;;30.95;20.80;;;;;;;3.87;99.05;99367.13;1763034;81;21499;-68
2021/04/17 04:10:06;;;;;;;29.00;20.62;;;;;;;3.89;99.10;99364.14;1762939;81;21070;-69
2021/04/17 04:12:33;;;;;;;28.07;18.05;;;;;;;3.91;99.18;99363.32;1762975;81;21482;-70
2021/04/17 04:15:02;;;;;;;23.95;17.70;;;;;;;3.94;99.09;99360.05;1763068;81;21055;-69
2021/04/17 04:17:30;;;;;;;28.07;19.85;;;;;;;3.93;99.02;99361.95;1762907;81;21366;-69
2021/04/17 04:19:58;;;;;;;29.07;20.72;;;;;;;3.93;98.89;99369.29;1763506;81;21047;-70
2021/04/17 04:22:26;;;;;;;36.25;21.95;;;;;;;3.92;98.82;99364.95;1763062;81;21175;-71
2021/04/17 04:24:56;;;;;;;27.93;20.70;;;;;;;3.93;99.13;99370.64;1757073;81;21077;-71
2021/04/17 04:27:24;;;;;;;27.40;19.52;;;;;;;3.93;99.05;99372.81;1755724;81;21160;-69
2021/04/17 04:29:52;;;;;;;30.30;19.52;;;;;;;3.94;98.96;99376.34;1756447;81;21398;-71
2021/04/17 04:32:20;;;;;;;25.68;18.85;;;;;;;3.95;98.83;99378.79;1756360;81;20994;-70
2021/04/17 04:34:48;;;;;;;27.22;19.55;;;;;;;3.96;98.80;99387.20;1756506;81;21593;-69
2021/04/17 04:37:15;;;;;;;27.55;19.75;;;;;;;3.99;98.85;99384.48;1756280;81;21137;-69
2021/04/17 04:39:43;;;;;;;31.30;20.82;;;;;;;4.02;98.87;99385.28;1756330;81;21156;-69
2021/04/17 04:42:12;;;;;;;26.17;19.35;;;;;;;4.02;98.52;99393.44;1756757;81;21248;-70
2021/04/17 04:44:40;;;;;;;28.57;20.32;;;;;;;4.01;98.17;99391.00;1757086;81;20998;-70
2021/04/17 04:47:08;;;;;;;25.85;18.67;;;;;;;4.01;98.24;99395.06;1757203;81;21025;-70
2021/04/17 04:49:36;;;;;;;28.45;20.25;;;;;;;4.03;98.45;99392.89;1757091;81;21073;-69
2021/04/17 04:52:05;;;;;;;29.15;19.55;;;;;;;4.04;98.27;99395.88;1757126;81;21045;-69
2021/04/17 04:54:33;;;;;;;28.65;20.15;;;;;;;4.06;97.99;99403.98;1756741;80;21377;-69
2021/04/17 04:57:01;;;;;;;31.77;21.73;;;;;;;4.07;97.74;99408.33;1755856;81;20957;-69
2021/04/17 04:59:29;;;;;;;33.67;23.70;;;;;;;4.06;97.49;99409.97;1754564;80;20989;-69
2021/04/17 05:01:56;;;;;;;30.88;21.02;;;;;;;4.06;97.51;99414.04;1756852;81;21147;-71
2021/04/17 05:04:24;;;;;;;29.32;20.88;;;;;;;4.07;97.52;99412.41;1758756;81;21045;-70
2021/04/17 05:06:52;;;;;;;30.95;20.60;;;;;;;4.07;97.13;99415.13;1758499;81;21382;-69
2021/04/17 05:09:22;;;;;;;24.30;16.87;;;;;;;4.08;97.18;99422.73;1758613;81;20942;-69
2021/04/17 05:11:49;;;;;;;40.63;21.25;;;;;;;4.10;97.25;99419.19;1758676;81;20989;-69
2021/04/17 05:14:17;;;;;;;31.35;20.43;;;;;;;4.11;97.23;99422.17;1758711;81;21222;-69
2021/04/17 05:16:47;;;;;;;29.80;19.60;;;;;;;4.13;97.17;99422.71;1758791;81;21056;-69
2021/04/17 05:19:16;;;;;;;39.03;23.27;;;;;;;4.16;97.36;99424.33;1758766;81;21206;-69
2021/04/17 05:21:44;;;;;;;35.95;21.68;;;;;;;4.20;97.42;99423.23;1758754;81;20962;-70
2021/04/17 05:24:12;;;;;;;37.67;22.62;;;;;;;4.25;97.71;99423.22;1758718;81;20926;-69
2021/04/17 05:26:39;;;;;;;34.48;19.65;;;;;;;4.27;97.67;99430.00;1758765;81;21575;-71
2021/04/17 05:29:06;;;;;;;39.33;24.95;;;;;;;4.29;97.34;99428.37;1758812;81;21183;-69
2021/04/17 05:31:35;;;;;;;45.58;25.40;;;;;;;4.33;97.64;99429.98;1758807;81;21496;-69
2021/04/17 05:34:05;;;;;;;39.88;22.20;;;;;;;4.37;97.74;99425.62;1758674;81;20954;-70
2021/04/17 05:36:35;;;;;;;26.82;18.50;;;;;;;4.39;97.39;99424.80;1758609;81;20922;-75
2021/04/17 05:39:04;;;;;;;28.00;18.73;;;;;;;4.39;97.54;99431.05;1758695;81;20965;-72
2021/04/17 05:41:32;;;;;;;28.65;20.23;;;;;;;4.40;97.31;99434.03;1758718;80;21077;-68
2021/04/17 05:43:59;;;;;;;24.67;17.23;;;;;;;4.43;97.53;99430.77;1758692;81;21152;-70
2021/04/17 05:46:27;;;;;;;24.45;17.42;;;;;;;4.45;97.34;99437.28;1758610;81;21141;-69
2021/04/17 05:48:55;;;;;;;32.48;20.65;;;;;;;4.43;97.25;99439.46;1758678;81;20942;-69
2021/04/17 05:51:23;;;;;;;26.35;17.20;;;;;;;4.39;97.36;99440.56;1758672;81;21515;-69
2021/04/17 05:53:51;;;;;;;23.42;15.85;;;;;;;4.41;97.67;99440.28;1758716;81;21021;-69
2021/04/17 05:56:19;;;;;;;32.70;20.10;;;;;;;4.38;97.60;99444.37;1758737;81;21195;-69
2021/04/17 05:58:48;;;;;;;26.55;16.82;;;;;;;4.38;97.93;99451.17;1758641;81;21132;-69
2021/04/17 06:01:16;;;;;;;29.90;18.32;;;;;;;4.37;98.11;99449.54;1758706;81;21491;-69
2021/04/17 06:03:43;;;;;;;26.00;16.87;;;;;;;4.36;98.26;99454.70;1758691;81;20891;-69
2021/04/17 06:06:11;;;;;;;27.73;17.40;;;;;;;4.38;98.66;99457.96;1758697;81;21516;-70
2021/04/17 06:08:41;;;;;;;30.32;18.62;;;;;;;4.42;98.62;99460.39;1730527;81;23070;-68
2021/04/17 06:11:08;;;;;;;30.45;18.17;;;;;;;4.46;98.84;99464.19;1758520;81;21150;-68
2021/04/17 06:13:38;;;;;;;27.90;18.42;;;;;;;4.49;98.90;99462.27;1758497;81;21139;-68
2021/04/17 06:16:06;;;;;;;49.67;28.52;;;;;;;4.50;98.60;99466.63;1758647;81;21051;-68
2021/04/17 06:18:34;;;;;;;32.13;19.32;;;;;;;4.52;98.79;99467.70;1758779;81;21488;-68
2021/04/17 06:21:05;;;;;;;32.78;19.85;;;;;;;4.59;99.15;99466.86;1758719;81;21313;-69
2021/04/17 06:23:36;;;;;;;28.10;18.30;;;;;;;4.66;99.18;99472.78;1756736;80;20958;-71
2021/04/17 06:26:03;;;;;;;31.30;18.25;;;;;;;4.70;98.86;99467.59;1756680;81;21469;-71
2021/04/17 06:28:33;;;;;;;28.20;17.73;;;;;;;4.71;98.61;99472.76;1757009;81;21058;-68
2021/04/17 06:31:03;;;;;;;28.60;18.65;;;;;;;4.69;97.98;99482.28;1757061;81;21073;-68
2021/04/17 06:33:31;;;;;;;29.23;19.12;;;;;;;4.65;97.77;99482.84;1757070;81;21366;-69
2021/04/17 06:36:02;;;;;;;30.75;18.12;;;;;;;4.67;97.87;99479.03;1756965;81;21136;-69
2021/04/17 06:38:30;;;;;;;32.10;18.42;;;;;;;4.68;97.74;99476.58;1751873;81;21022;-75
2021/04/17 06:41:02;;;;;;;31.55;19.17;;;;;;;4.73;97.98;99480.09;1747657;81;21671;-76
2021/04/17 06:43:35;;;;;;;34.08;19.75;;;;;;;4.76;97.53;99486.88;1718439;81;21181;-73
2021/04/17 06:46:03;;;;;;;28.52;18.45;;;;;;;4.80;97.51;99485.23;1747944;82;21568;-73
2021/04/17 06:48:32;;;;;;;26.30;17.52;;;;;;;4.83;97.61;99485.48;1747752;82;21600;-77
2021/04/17 06:51:02;;;;;;;30.70;19.60;;;;;;;4.92;97.68;99489.80;1748104;82;21137;-79
2021/04/17 06:53:30;;;;;;;32.08;19.42;;;;;;;4.95;97.32;99497.41;1748003;82;21038;-78
2021/04/17 06:55:58;;;;;;;28.30;18.45;;;;;;;5.01;97.45;99501.72;1718590;82;21161;-79
2021/04/17 06:58:26;;;;;;;29.30;17.42;;;;;;;5.08;97.07;99503.59;1748086;82;21210;-85
2021/04/17 07:00:53;;;;;;;29.57;17.65;;;;;;;5.13;96.90;99498.13;1747790;82;21030;-74
2021/04/17 07:03:21;;;;;;;25.77;16.62;;;;;;;5.18;96.56;99499.45;1747996;82;21145;-77
2021/04/17 07:05:48;;;;;;;27.48;17.75;;;;;;;5.25;96.49;99498.56;1747992;82;21161;-75
2021/04/17 07:08:16;;;;;;;31.48;18.70;;;;;;;5.42;96.13;99504.17;1748092;81;21485;-79
2021/04/17 07:10:44;;;;;;;29.48;18.57;;;;;;;5.46;95.29;99503.88;1747924;81;21901;-77
2021/04/17 07:13:14;;;;;;;28.32;16.55;;;;;;;5.46;95.29;99503.88;1748009;81;21144;-75
2021/04/17 07:15:43;;;;;;;25.35;17.10;;;;;;;5.60;94.62;99508.95;1718806;82;21136;-79
2021/04/17 07:18:30;;;;;;;21.68;15.38;;;;;;;5.60;94.62;99508.95;1747847;82;21184;-74
2021/04/17 07:21:18;;;;;;;26.55;16.42;;;;;;;5.65;94.24;99511.64;1748062;82;21128;-69
2021/04/17 07:23:47;;;;;;;24.82;16.55;;;;;;;5.71;93.96;99509.69;1734308;82;22398;-77
2021/04/17 07:26:27;;;;;;;23.98;15.25;;;;;;;5.77;94.04;99509.37;1718793;82;21132;-77
2021/04/17 07:29:03;;;;;;;23.35;15.30;;;;;;;5.85;93.46;99516.08;1748519;81;20899;-77
2021/04/17 07:31:34;;;;;;;23.77;15.13;;;;;;;5.88;92.89;99514.97;1749269;81;21059;-71
2021/04/17 07:34:17;;;;;;;25.00;16.75;;;;;;;5.88;92.36;99518.23;1751512;81;21075;-70
2021/04/17 07:36:52;;;;;;;22.45;14.35;;;;;;;5.88;92.05;99518.23;1722910;83;21224;-69
2021/04/17 07:39:37;;;;;;;22.42;13.83;;;;;;;5.87;92.26;99520.16;1722760;83;20981;-74
2021/04/17 07:42:15;;;;;;;23.27;14.98;;;;;;;5.90;91.75;99529.70;1722970;83;20966;-72
2021/04/17 07:44:48;;;;;;;20.00;13.78;;;;;;;5.88;91.89;99528.59;1723015;83;20947;-72
2021/04/17 07:47:32;;;;;;;21.90;14.13;;;;;;;5.87;91.67;99529.69;1723063;83;21084;-72
2021/04/17 07:50:05;;;;;;;20.75;12.75;;;;;;;5.91;91.43;99534.05;1723023;83;21424;-74
2021/04/17 07:52:39;;;;;;;19.57;13.68;;;;;;;5.89;90.96;99525.34;1722958;83;21128;-76
2021/04/17 07:55:10;;;;;;;24.40;13.85;;;;;;;5.87;91.10;99530.23;1722239;83;21667;-77
2021/04/17 07:57:55;;;;;;;22.05;14.63;;;;;;;5.88;91.07;99530.50;1722468;83;21159;-76
2021/04/17 08:00:24;;;;;;;20.88;13.13;;;;;;;5.88;90.80;99532.67;1723094;83;21481;-73
2021/04/17 08:02:53;;;;;;;19.95;12.93;;;;;;;5.87;90.86;99537.86;1722906;83;22174;-72
2021/04/17 08:05:23;;;;;;;24.18;14.68;;;;;;;5.86;90.61;99536.78;1722881;83;21037;-72
2021/04/17 08:07:52;;;;;;;22.48;14.13;;;;;;;5.89;90.66;99532.97;1694111;82;21005;-71
2021/04/17 08:10:20;;;;;;;25.35;14.85;;;;;;;5.93;90.71;99542.75;1723153;83;21539;-71
2021/04/17 08:12:49;;;;;;;24.40;14.40;;;;;;;5.93;90.71;99542.75;1726443;80;21251;-87
2021/04/17 08:15:19;;;;;;;23.02;14.53;;;;;;;5.92;90.70;99539.21;1750154;81;22118;-78
2021/04/17 08:17:49;;;;;;;27.30;13.72;;;;;;;5.89;90.29;99545.23;1749989;81;21171;-85
2021/04/17 08:20:18;;;;;;;22.95;13.35;;;;;;;5.87;90.74;99547.39;1752859;80;20994;-73
2021/04/17 08:22:49;;;;;;;18.92;12.07;;;;;;;5.89;90.80;99539.78;1747976;81;21083;-66
2021/04/17 08:25:21;;;;;;;21.12;13.72;;;;;;;5.91;90.71;99552.58;1747326;82;21577;-66
2021/04/17 08:27:50;;;;;;;21.40;13.20;;;;;;;5.93;90.61;99542.75;1747392;82;21380;-66
2021/04/17 08:30:25;;;;;;;21.35;12.85;;;;;;;5.94;91.12;99548.47;1747318;82;21585;-66
2021/04/17 08:32:54;;;;;;;22.07;14.03;;;;;;;5.94;91.12;99548.47;1752331;81;20930;-66
2021/04/17 08:35:23;;;;;;;20.97;13.93;;;;;;;5.98;90.87;99548.16;1720307;82;20965;-67
2021/04/17 08:37:57;;;;;;;23.30;14.10;;;;;;;6.01;90.50;99554.95;1741050;80;21132;-67
2021/04/17 08:40:49;;;;;;;24.57;14.55;;;;;;;5.99;90.26;99551.15;1710578;82;22357;-66
2021/04/17 08:43:22;;;;;;;21.00;13.05;;;;;;;5.97;89.93;99556.06;1710176;83;20995;-66
2021/04/17 08:46:11;;;;;;;20.97;12.65;;;;;;;5.99;90.22;99552.52;1710420;84;21003;-66
2021/04/17 08:48:56;;;;;;;19.80;12.55;;;;;;;6.07;90.77;99556.53;1708944;84;21609;-80
2021/04/17 08:51:30;;;;;;;20.97;11.78;;;;;;;6.12;90.37;99547.77;1709070;84;21166;-78
2021/04/17 08:54:05;;;;;;;20.68;13.62;;;;;;;6.15;89.93;99547.74;1708737;82;21825;-72
2021/04/17 08:56:45;;;;;;;23.27;14.28;;;;;;;6.15;89.82;99552.64;1709767;84;21141;-71
2021/04/17 08:59:12;;;;;;;26.30;15.63;;;;;;;6.15;89.66;99552.64;1708764;84;21169;-71
2021/04/17 09:01:42;;;;;;;26.55;16.30;;;;;;;6.11;89.97;99550.78;1709014;83;21220;-72
2021/04/17 09:04:11;;;;;;;26.35;15.93;;;;;;;6.09;89.63;99554.34;1710118;84;21677;-72
2021/04/17 09:06:43;;;;;;;30.35;16.82;;;;;;;6.09;89.63;99554.34;1710435;82;21550;-72
2021/04/17 09:09:24;;;;;;;26.73;15.95;;;;;;;6.07;90.08;99552.45;1710484;83;21126;-74
2021/04/17 09:11:58;;;;;;;35.27;21.87;;;;;;;6.06;90.25;99550.82;1710378;83;21087;-74
2021/04/17 09:14:36;;;;;;;54.70;34.63;;;;;;;6.13;90.62;99555.39;1708456;83;21068;-74
2021/04/17 09:17:09;;;;;;;32.88;20.77;;;;;;;6.10;90.46;99555.41;1710415;84;21498;-75
2021/04/17 09:19:51;;;;;;;30.65;17.55;;;;;;;6.09;90.11;99552.42;1689391;83;21619;-76
2021/04/17 09:22:33;;;;;;;37.83;20.10;;;;;;;6.03;89.82;99549.48;1710422;84;20992;-77
2021/04/17 09:25:09;;;;;;;26.07;16.55;;;;;;;5.95;90.05;99553.63;1710431;84;21517;-66
2021/04/17 09:27:45;;;;;;;26.07;15.45;;;;;;;5.97;90.22;99550.63;1742614;81;21062;-67
2021/04/17 09:30:15;;;;;;;32.48;17.52;;;;;;;6.03;90.31;99555.48;1742413;81;21086;-67
2021/04/17 09:32:50;;;;;;;26.97;17.67;;;;;;;6.03;90.31;99555.48;1738611;82;21159;-66
2021/04/17 09:35:28;;;;;;;28.73;17.07;;;;;;;6.09;90.33;99558.42;1740288;81;21031;-69
2021/04/17 09:38:13;;;;;;;24.30;16.10;;;;;;;6.14;89.92;99563.28;1754142;81;21005;-75
2021/04/17 09:40:53;;;;;;;32.93;19.10;;;;;;;6.14;89.48;99555.66;1755076;80;21116;-74
2021/04/17 09:43:27;;;;;;;27.20;16.45;;;;;;;6.13;89.71;99556.76;1756119;81;21516;-77
2021/04/17 09:45:58;;;;;;;27.35;15.75;;;;;;;6.15;90.01;99558.65;1755788;81;21407;-69
2021/04/17 09:48:25;;;;;;;21.48;13.48;;;;;;;6.19;89.86;99558.34;1748632;81;20907;-67
2021/04/17 09:50:58;;;;;;;24.80;13.25;;;;;;;6.22;90.20;99559.94;1740100;82;20968;-65
2021/04/17 09:53:29;;;;;;;26.62;14.93;;;;;;;6.22;90.20;99559.94;1740029;82;21071;-67
2021/04/17 09:56:03;;;;;;;30.10;16.42;;;;;;;6.19;90.32;99556.98;1740340;82;21185;-66
2021/04/17 09:58:37;;;;;;;23.75;14.20;;;;;;;6.16;91.36;99563.81;1740132;82;21542;-66
2021/04/17 10:01:14;;;;;;;19.48;12.53;;;;;;;6.19;92.00;99565.16;1739603;82;21106;-72
2021/04/17 10:03:45;;;;;;;24.00;14.45;;;;;;;6.20;92.14;99568.14;1740100;82;21023;-72
2021/04/17 10:06:35;;;;;;;26.68;14.38;;;;;;;6.19;92.27;99570.61;1740014;82;20944;-72
2021/04/17 10:09:11;;;;;;;26.85;13.62;;;;;;;6.20;92.22;99569.50;1740037;82;21054;-73
2021/04/17 10:11:42;;;;;;;22.05;13.35;;;;;;;6.18;92.04;99573.87;1740122;82;22175;-72
2021/04/17 10:14:11;;;;;;;23.05;13.48;;;;;;;6.22;92.21;99572.76;1739899;82;21043;-74
2021/04/17 10:16:47;;;;;;;24.15;12.45;;;;;;;6.29;91.99;99573.24;1729296;81;21005;-72
2021/04/17 10:19:18;;;;;;;22.05;12.45;;;;;;;6.37;91.32;99575.87;1710711;82;21067;-73
2021/04/17 10:21:58;;;;;;;21.62;12.88;;;;;;;6.37;91.32;99575.87;1710785;83;21060;-73
2021/04/17 10:41:42;;;;;;;25.90;16.07;;;;;;;6.75;87.06;99579.58;1719605;83;21017;-72
2021/04/17 10:44:13;;;;;;;22.30;14.87;;;;;;;6.69;86.54;99581.55;1728490;83;21129;-71
2021/04/17 10:46:46;;;;;;;22.55;14.07;;;;;;;6.66;87.32;99578.03;1728745;83;21575;-70
2021/04/17 10:49:37;;;;;;;;;;;;;;;6.73;87.81;99581.78;1704143;83;22899;-70
2021/04/17 10:52:08;;;;;;;30.72;16.60;;;;;;;6.74;87.41;99586.14;1728013;83;20255;-77
2021/04/17 10:54:52;;;;;;;24.80;15.88;;;;;;;6.73;87.49;99589.42;1734816;80;21170;-77
2021/04/17 10:57:20;;;;;;;25.77;14.47;;;;;;;6.74;87.21;99591.59;1757005;81;21132;-76
2021/04/17 10:59:55;;;;;;;23.42;15.35;;;;;;;6.77;87.56;99592.38;1755256;81;21597;-70
2021/04/17 11:02:27;;;;;;;24.67;15.08;;;;;;;6.86;88.26;99599.64;1747519;81;23530;-71
2021/04/17 11:04:55;;;;;;;;;;;;;;;6.92;87.39;99596.31;1755418;81;21135;-73
2021/04/17 11:07:30;;;;;;;22.75;14.25;;;;;;;6.93;87.32;99595.20;1752983;81;20133;-71
2021/04/17 11:09:57;;;;;;;24.00;14.80;;;;;;;6.95;86.88;99602.52;1752898;81;22017;-69
2021/04/17 11:12:30;;;;;;;22.70;15.10;;;;;;;6.93;86.47;99604.17;1752939;81;21102;-75
2021/04/17 11:15:21;;;;;;;23.02;15.18;;;;;;;6.97;86.50;99601.67;1753075;81;21633;-72
2021/04/17 11:18:18;;;;;;;20.45;14.25;;;;;;;7.03;86.23;99606.53;1753010;81;27732;-71
2021/04/17 11:20:55;;;;;;;20.60;14.28;;;;;;;7.04;85.53;99603.51;1752957;81;20944;-71
2021/04/17 11:24:00;;;;;;;23.38;15.58;;;;;;;7.06;85.22;99612.22;1752990;81;21507;-71
2021/04/17 11:26:29;;;;;;;23.73;15.48;;;;;;;7.09;85.41;99608.91;1753019;81;20928;-76
2021/04/17 11:29:01;;;;;;;28.47;16.25;;;;;;;7.14;85.29;99614.86;1752840;81;21376;-76
2021/04/17 11:31:33;;;;;;;;;;;;;;;7.16;85.29;99617.56;1755483;81;20976;-72
2021/04/17 11:34:02;;;;;;;28.57;17.62;;;;;;;7.16;85.32;99616.20;1752992;81;20284;-72
2021/04/17 11:36:32;;;;;;;24.63;16.30;;;;;;;7.18;85.54;99619.45;1756035;80;21017;-67
2021/04/17 11:39:00;;;;;;;25.45;16.65;;;;;;;7.19;84.80;99614.25;1728449;82;21199;-70
2021/04/17 11:41:28;;;;;;;27.58;17.48;;;;;;;7.22;85.15;99609.57;1728333;82;21391;-67
2021/04/17 11:43:57;;;;;;;25.20;15.08;;;;;;;7.25;84.74;99613.08;1739607;81;21033;-70
2021/04/17 11:46:25;;;;;;;23.15;15.50;;;;;;;7.25;84.19;99617.18;1757942;81;21092;-69
2021/04/17 11:48:53;;;;;;;26.87;16.62;;;;;;;7.25;83.98;99620.46;1736592;81;21201;-69
2021/04/17 11:51:22;;;;;;;25.45;15.45;;;;;;;7.27;83.89;99623.72;1761851;80;20954;-68
2021/04/17 11:53:51;;;;;;;26.65;14.33;;;;;;;7.28;83.85;99628.07;1762102;81;21570;-66
2021/04/17 11:56:18;;;;;;;24.95;14.83;;;;;;;7.29;83.69;99626.97;1762009;81;21172;-66
2021/04/17 11:58:47;;;;;;;23.70;14.15;;;;;;;7.28;83.80;99627.52;1761180;81;21739;-73
2021/04/17 12:01:16;;;;;;;24.00;15.98;;;;;;;7.28;83.57;99623.98;1762023;81;21514;-84
2021/04/17 12:03:45;;;;;;;22.62;14.93;;;;;;;7.26;83.46;99631.09;1713648;81;21058;-68